الصفحة الرئيسية
METAR-TAF:

METAR-TAF

مطار :

مطار ليوبولد سيدار سنغور الدولي

دكار, السنغال

دائرة عرض: 14-44N, خط طول: 017-30W, ارتفاع: 27 متر

مراقبة الطقس الحالي

تاريخ ووقت الإصدار 1ساعة و 17 دقيقة قبل الساعة 07:00UTC
ريح 4 عقدة من الشمال
درجة الحرارة 25°درجة مئوية
الرطوبة 89%
ضغط 1011 hPa
الرؤية: 8000 متر
غيوم متفرقة على ارتفاع 1000 قدم

METAR: GOOY 150700Z 36004KT 8000 SCT010 25/23 Q1011

زمن: 08:17 (08:17 UTC)

توقعات

تاريخ ووقت الإصدار 2ساعات و 47 دقيقة قبل الساعة 05:30UTC
التوقعات صالحة من15 الساعة 06 UTC إلى 16 الساعة 12 UTC
ريح 6 عقدة من الشمال
الرؤية: 8000 متر

TAF: GOOY 150530Z 1506/1612 36006KT 8000 NSC

أرصاد الطقس والتوقعات من أكثر من 4000 مطار (تقارير الطقس للمطار METAR والتنبؤ بالطقس بالمطارTAF).

المحطات المتاحة هي النقط الصفراء والحمراء على الخريطة.

حرك المؤشر فوق النقطة لمعرفة اسم المحطة.

ثم انقر لمعرفة أرصاد وتوقعات الطقس.

لتغيير الخارطة: اضغط على الأزرار الخضراء مع رمز الصليب الأسود للتكبير. على الزر الأخضر مع شرطة للتصغير، أو على الأسهم الخضراء للخرائط المجاورة.


METAR-TAF: